sensor_id;sensor_type;location;lat;lon;timestamp;P1;durP1;ratioP1;P2;durP2;ratioP2
22131;SDS011;11232;51.748;19.390;2024-01-11T00:00:28;175.97;;;55.60;;
22131;SDS011;11232;51.748;19.390;2024-01-11T00:02:54;156.23;;;53.97;;
22131;SDS011;11232;51.748;19.390;2024-01-11T00:05:20;177.87;;;53.93;;
22131;SDS011;11232;51.748;19.390;2024-01-11T00:07:47;168.03;;;53.70;;
22131;SDS011;11232;51.748;19.390;2024-01-11T00:10:13;151.83;;;51.57;;
22131;SDS011;11232;51.748;19.390;2024-01-11T00:12:39;156.30;;;49.57;;
22131;SDS011;11232;51.748;19.390;2024-01-11T00:15:05;157.60;;;49.87;;
22131;SDS011;11232;51.748;19.390;2024-01-11T00:17:31;141.27;;;46.90;;
22131;SDS011;11232;51.748;19.390;2024-01-11T00:19:57;165.00;;;51.77;;
22131;SDS011;11232;51.748;19.390;2024-01-11T00:22:23;160.53;;;47.50;;
22131;SDS011;11232;51.748;19.390;2024-01-11T00:24:49;133.23;;;42.37;;
22131;SDS011;11232;51.748;19.390;2024-01-11T00:27:15;152.20;;;49.60;;
22131;SDS011;11232;51.748;19.390;2024-01-11T00:29:41;131.73;;;46.27;;
22131;SDS011;11232;51.748;19.390;2024-01-11T00:32:07;145.53;;;47.43;;
22131;SDS011;11232;51.748;19.390;2024-01-11T00:34:33;150.00;;;49.40;;
22131;SDS011;11232;51.748;19.390;2024-01-11T00:37:00;156.60;;;49.63;;
22131;SDS011;11232;51.748;19.390;2024-01-11T00:39:26;159.00;;;49.97;;
22131;SDS011;11232;51.748;19.390;2024-01-11T00:41:54;139.43;;;46.43;;
22131;SDS011;11232;51.748;19.390;2024-01-11T00:44:20;162.23;;;49.93;;
22131;SDS011;11232;51.748;19.390;2024-01-11T00:46:46;164.03;;;48.93;;
22131;SDS011;11232;51.748;19.390;2024-01-11T00:49:12;147.87;;;44.73;;
22131;SDS011;11232;51.748;19.390;2024-01-11T00:51:38;159.47;;;47.53;;
22131;SDS011;11232;51.748;19.390;2024-01-11T00:54:04;162.17;;;51.03;;
22131;SDS011;11232;51.748;19.390;2024-01-11T00:56:30;158.17;;;49.83;;
22131;SDS011;11232;51.748;19.390;2024-01-11T00:58:56;169.47;;;52.17;;
22131;SDS011;11232;51.748;19.390;2024-01-11T01:01:22;160.63;;;52.53;;
22131;SDS011;11232;51.748;19.390;2024-01-11T01:03:48;154.40;;;47.50;;
22131;SDS011;11232;51.748;19.390;2024-01-11T01:06:15;138.47;;;44.87;;
22131;SDS011;11232;51.748;19.390;2024-01-11T01:08:42;156.37;;;47.57;;
22131;SDS011;11232;51.748;19.390;2024-01-11T01:11:08;146.80;;;46.70;;
22131;SDS011;11232;51.748;19.390;2024-01-11T01:13:34;133.27;;;42.77;;
22131;SDS011;11232;51.748;19.390;2024-01-11T01:16:00;131.97;;;43.27;;
22131;SDS011;11232;51.748;19.390;2024-01-11T01:18:26;119.60;;;36.57;;
22131;SDS011;11232;51.748;19.390;2024-01-11T01:20:52;124.73;;;40.47;;
22131;SDS011;11232;51.748;19.390;2024-01-11T01:23:18;84.27;;;29.03;;
22131;SDS011;11232;51.748;19.390;2024-01-11T01:25:44;126.00;;;40.87;;
22131;SDS011;11232;51.748;19.390;2024-01-11T01:28:10;107.50;;;38.13;;
22131;SDS011;11232;51.748;19.390;2024-01-11T01:30:36;139.50;;;42.87;;
22131;SDS011;11232;51.748;19.390;2024-01-11T01:33:02;127.87;;;39.03;;
22131;SDS011;11232;51.748;19.390;2024-01-11T01:35:28;101.67;;;33.57;;
22131;SDS011;11232;51.748;19.390;2024-01-11T01:37:54;113.70;;;35.53;;
22131;SDS011;11232;51.748;19.390;2024-01-11T01:40:21;131.27;;;39.90;;
22131;SDS011;11232;51.748;19.390;2024-01-11T01:42:47;120.67;;;40.23;;
22131;SDS011;11232;51.748;19.390;2024-01-11T01:45:14;123.17;;;38.93;;
22131;SDS011;11232;51.748;19.390;2024-01-11T01:47:42;131.93;;;39.57;;
22131;SDS011;11232;51.748;19.390;2024-01-11T01:50:09;111.20;;;39.27;;
22131;SDS011;11232;51.748;19.390;2024-01-11T01:52:36;121.73;;;38.33;;
22131;SDS011;11232;51.748;19.390;2024-01-11T01:55:02;119.90;;;37.57;;
22131;SDS011;11232;51.748;19.390;2024-01-11T01:57:29;119.63;;;38.43;;
22131;SDS011;11232;51.748;19.390;2024-01-11T01:59:55;123.57;;;37.70;;
22131;SDS011;11232;51.748;19.390;2024-01-11T02:02:22;110.60;;;36.70;;
22131;SDS011;11232;51.748;19.390;2024-01-11T02:04:48;120.43;;;36.47;;
22131;SDS011;11232;51.748;19.390;2024-01-11T02:07:14;108.13;;;37.77;;
22131;SDS011;11232;51.748;19.390;2024-01-11T02:09:40;113.27;;;35.63;;
22131;SDS011;11232;51.748;19.390;2024-01-11T02:12:06;101.50;;;35.87;;
22131;SDS011;11232;51.748;19.390;2024-01-11T02:14:37;113.73;;;36.23;;
22131;SDS011;11232;51.748;19.390;2024-01-11T02:17:03;118.40;;;38.60;;
22131;SDS011;11232;51.748;19.390;2024-01-11T02:19:29;113.73;;;38.20;;
22131;SDS011;11232;51.748;19.390;2024-01-11T02:21:55;116.53;;;36.10;;
22131;SDS011;11232;51.748;19.390;2024-01-11T02:24:24;113.33;;;36.43;;
22131;SDS011;11232;51.748;19.390;2024-01-11T02:27:03;109.47;;;36.63;;
22131;SDS011;11232;51.748;19.390;2024-01-11T02:29:30;108.37;;;36.70;;
22131;SDS011;11232;51.748;19.390;2024-01-11T02:31:56;110.57;;;36.33;;
22131;SDS011;11232;51.748;19.390;2024-01-11T02:34:22;113.80;;;36.83;;
22131;SDS011;11232;51.748;19.390;2024-01-11T02:36:49;119.27;;;38.53;;
22131;SDS011;11232;51.748;19.390;2024-01-11T02:39:16;119.23;;;37.77;;
22131;SDS011;11232;51.748;19.390;2024-01-11T02:41:43;96.27;;;32.73;;
22131;SDS011;11232;51.748;19.390;2024-01-11T02:44:09;125.67;;;37.33;;
22131;SDS011;11232;51.748;19.390;2024-01-11T02:46:35;125.73;;;39.27;;
22131;SDS011;11232;51.748;19.390;2024-01-11T02:49:01;102.63;;;33.43;;
22131;SDS011;11232;51.748;19.390;2024-01-11T02:51:27;117.23;;;36.43;;
22131;SDS011;11232;51.748;19.390;2024-01-11T02:53:53;109.63;;;35.00;;
22131;SDS011;11232;51.748;19.390;2024-01-11T02:56:19;118.67;;;36.20;;
22131;SDS011;11232;51.748;19.390;2024-01-11T02:58:45;113.17;;;37.07;;
22131;SDS011;11232;51.748;19.390;2024-01-11T03:01:11;119.90;;;36.27;;
22131;SDS011;11232;51.748;19.390;2024-01-11T03:03:37;89.57;;;30.77;;
22131;SDS011;11232;51.748;19.390;2024-01-11T03:06:03;118.13;;;34.83;;
22131;SDS011;11232;51.748;19.390;2024-01-11T03:08:29;106.80;;;33.67;;
22131;SDS011;11232;51.748;19.390;2024-01-11T03:10:55;99.00;;;31.33;;
22131;SDS011;11232;51.748;19.390;2024-01-11T03:13:21;100.13;;;35.80;;
22131;SDS011;11232;51.748;19.390;2024-01-11T03:15:47;95.37;;;31.37;;
22131;SDS011;11232;51.748;19.390;2024-01-11T03:18:13;100.13;;;33.77;;
22131;SDS011;11232;51.748;19.390;2024-01-11T03:20:39;100.70;;;29.83;;
22131;SDS011;11232;51.748;19.390;2024-01-11T03:23:05;92.17;;;30.47;;
22131;SDS011;11232;51.748;19.390;2024-01-11T03:25:31;115.30;;;31.83;;
22131;SDS011;11232;51.748;19.390;2024-01-11T03:27:57;83.00;;;29.07;;
22131;SDS011;11232;51.748;19.390;2024-01-11T03:30:24;91.00;;;29.63;;
22131;SDS011;11232;51.748;19.390;2024-01-11T03:32:50;102.83;;;31.00;;
22131;SDS011;11232;51.748;19.390;2024-01-11T03:35:17;96.37;;;33.70;;
22131;SDS011;11232;51.748;19.390;2024-01-11T03:37:43;94.63;;;33.30;;
22131;SDS011;11232;51.748;19.390;2024-01-11T03:40:09;91.80;;;30.40;;
22131;SDS011;11232;51.748;19.390;2024-01-11T03:42:35;89.37;;;30.00;;
22131;SDS011;11232;51.748;19.390;2024-01-11T03:45:01;101.50;;;32.10;;
22131;SDS011;11232;51.748;19.390;2024-01-11T03:47:28;103.60;;;33.23;;
22131;SDS011;11232;51.748;19.390;2024-01-11T03:49:54;96.43;;;32.27;;
22131;SDS011;11232;51.748;19.390;2024-01-11T03:52:20;110.43;;;34.67;;
22131;SDS011;11232;51.748;19.390;2024-01-11T03:54:46;102.77;;;33.73;;
22131;SDS011;11232;51.748;19.390;2024-01-11T03:57:12;82.90;;;25.70;;
22131;SDS011;11232;51.748;19.390;2024-01-11T03:59:38;108.37;;;33.37;;
22131;SDS011;11232;51.748;19.390;2024-01-11T04:02:04;79.10;;;27.83;;
22131;SDS011;11232;51.748;19.390;2024-01-11T04:04:30;95.10;;;31.17;;
22131;SDS011;11232;51.748;19.390;2024-01-11T04:06:56;83.83;;;29.20;;
22131;SDS011;11232;51.748;19.390;2024-01-11T04:09:22;102.23;;;30.23;;
22131;SDS011;11232;51.748;19.390;2024-01-11T04:11:48;105.73;;;30.70;;
22131;SDS011;11232;51.748;19.390;2024-01-11T04:14:14;85.37;;;30.17;;
22131;SDS011;11232;51.748;19.390;2024-01-11T04:16:41;82.10;;;30.77;;
22131;SDS011;11232;51.748;19.390;2024-01-11T04:19:07;100.87;;;30.67;;
22131;SDS011;11232;51.748;19.390;2024-01-11T04:21:33;87.90;;;31.43;;
22131;SDS011;11232;51.748;19.390;2024-01-11T04:23:59;95.73;;;29.13;;
22131;SDS011;11232;51.748;19.390;2024-01-11T04:26:25;102.57;;;33.97;;
22131;SDS011;11232;51.748;19.390;2024-01-11T04:28:51;104.57;;;31.80;;
22131;SDS011;11232;51.748;19.390;2024-01-11T04:31:18;92.43;;;28.93;;
22131;SDS011;11232;51.748;19.390;2024-01-11T04:33:44;94.43;;;32.67;;
22131;SDS011;11232;51.748;19.390;2024-01-11T04:36:10;98.87;;;32.97;;
22131;SDS011;11232;51.748;19.390;2024-01-11T04:38:36;115.20;;;35.23;;
22131;SDS011;11232;51.748;19.390;2024-01-11T04:41:07;86.13;;;29.83;;
22131;SDS011;11232;51.748;19.390;2024-01-11T04:43:33;99.10;;;32.23;;
22131;SDS011;11232;51.748;19.390;2024-01-11T04:45:59;92.50;;;31.93;;
22131;SDS011;11232;51.748;19.390;2024-01-11T04:48:24;100.03;;;33.27;;
22131;SDS011;11232;51.748;19.390;2024-01-11T04:50:50;103.87;;;33.90;;
22131;SDS011;11232;51.748;19.390;2024-01-11T04:53:16;103.73;;;35.47;;
22131;SDS011;11232;51.748;19.390;2024-01-11T04:55:43;108.23;;;33.40;;
22131;SDS011;11232;51.748;19.390;2024-01-11T04:58:09;97.87;;;32.50;;
22131;SDS011;11232;51.748;19.390;2024-01-11T05:00:35;110.93;;;34.77;;
22131;SDS011;11232;51.748;19.390;2024-01-11T05:03:01;105.60;;;31.37;;
22131;SDS011;11232;51.748;19.390;2024-01-11T05:05:27;85.83;;;29.87;;
22131;SDS011;11232;51.748;19.390;2024-01-11T05:07:53;101.77;;;32.20;;
22131;SDS011;11232;51.748;19.390;2024-01-11T05:10:19;89.30;;;28.97;;
22131;SDS011;11232;51.748;19.390;2024-01-11T05:12:45;103.30;;;31.63;;
22131;SDS011;11232;51.748;19.390;2024-01-11T05:15:11;81.50;;;29.17;;
22131;SDS011;11232;51.748;19.390;2024-01-11T05:17:37;100.17;;;32.00;;
22131;SDS011;11232;51.748;19.390;2024-01-11T05:20:03;99.83;;;29.37;;
22131;SDS011;11232;51.748;19.390;2024-01-11T05:22:30;100.80;;;34.80;;
22131;SDS011;11232;51.748;19.390;2024-01-11T05:24:56;116.03;;;34.80;;
22131;SDS011;11232;51.748;19.390;2024-01-11T05:27:22;88.20;;;28.73;;
22131;SDS011;11232;51.748;19.390;2024-01-11T05:29:48;109.30;;;31.93;;
22131;SDS011;11232;51.748;19.390;2024-01-11T05:32:14;91.53;;;30.03;;
22131;SDS011;11232;51.748;19.390;2024-01-11T05:34:40;95.30;;;29.83;;
22131;SDS011;11232;51.748;19.390;2024-01-11T05:37:06;102.73;;;32.23;;
22131;SDS011;11232;51.748;19.390;2024-01-11T05:39:32;99.33;;;32.33;;
22131;SDS011;11232;51.748;19.390;2024-01-11T05:41:58;92.80;;;32.77;;
22131;SDS011;11232;51.748;19.390;2024-01-11T05:44:24;101.60;;;34.77;;
22131;SDS011;11232;51.748;19.390;2024-01-11T05:46:50;108.17;;;32.70;;
22131;SDS011;11232;51.748;19.390;2024-01-11T05:49:16;92.83;;;31.07;;
22131;SDS011;11232;51.748;19.390;2024-01-11T05:51:42;93.80;;;29.67;;
22131;SDS011;11232;51.748;19.390;2024-01-11T05:54:08;94.63;;;32.40;;
22131;SDS011;11232;51.748;19.390;2024-01-11T05:56:34;90.93;;;30.90;;
22131;SDS011;11232;51.748;19.390;2024-01-11T05:59:00;101.70;;;34.07;;
22131;SDS011;11232;51.748;19.390;2024-01-11T06:01:26;98.87;;;32.57;;
22131;SDS011;11232;51.748;19.390;2024-01-11T06:03:52;109.60;;;31.93;;
22131;SDS011;11232;51.748;19.390;2024-01-11T06:06:18;101.43;;;34.07;;
22131;SDS011;11232;51.748;19.390;2024-01-11T06:08:44;89.60;;;31.93;;
22131;SDS011;11232;51.748;19.390;2024-01-11T06:11:10;85.77;;;31.43;;
22131;SDS011;11232;51.748;19.390;2024-01-11T06:13:36;101.20;;;31.40;;
22131;SDS011;11232;51.748;19.390;2024-01-11T06:16:02;100.87;;;31.10;;
22131;SDS011;11232;51.748;19.390;2024-01-11T06:18:28;98.33;;;32.17;;
22131;SDS011;11232;51.748;19.390;2024-01-11T06:20:55;90.40;;;29.83;;
22131;SDS011;11232;51.748;19.390;2024-01-11T06:23:23;86.20;;;30.20;;
22131;SDS011;11232;51.748;19.390;2024-01-11T06:25:49;89.30;;;28.83;;
22131;SDS011;11232;51.748;19.390;2024-01-11T06:28:15;103.60;;;31.67;;
22131;SDS011;11232;51.748;19.390;2024-01-11T06:30:41;102.30;;;30.53;;
22131;SDS011;11232;51.748;19.390;2024-01-11T06:33:08;101.33;;;31.57;;
22131;SDS011;11232;51.748;19.390;2024-01-11T06:35:34;90.63;;;28.57;;
22131;SDS011;11232;51.748;19.390;2024-01-11T06:38:00;100.27;;;30.83;;
22131;SDS011;11232;51.748;19.390;2024-01-11T06:40:26;87.47;;;28.70;;
22131;SDS011;11232;51.748;19.390;2024-01-11T06:42:52;86.33;;;28.93;;
22131;SDS011;11232;51.748;19.390;2024-01-11T06:45:18;75.93;;;28.00;;
22131;SDS011;11232;51.748;19.390;2024-01-11T06:47:44;86.27;;;28.10;;
22131;SDS011;11232;51.748;19.390;2024-01-11T06:50:14;88.37;;;27.17;;
22131;SDS011;11232;51.748;19.390;2024-01-11T06:52:41;83.90;;;28.07;;
22131;SDS011;11232;51.748;19.390;2024-01-11T06:55:08;91.87;;;28.97;;
22131;SDS011;11232;51.748;19.390;2024-01-11T06:57:34;90.90;;;29.10;;
22131;SDS011;11232;51.748;19.390;2024-01-11T07:00:00;88.93;;;29.07;;
22131;SDS011;11232;51.748;19.390;2024-01-11T07:02:27;87.87;;;27.47;;
22131;SDS011;11232;51.748;19.390;2024-01-11T07:04:53;98.80;;;33.30;;
22131;SDS011;11232;51.748;19.390;2024-01-11T07:07:19;91.63;;;31.87;;
22131;SDS011;11232;51.748;19.390;2024-01-11T07:09:45;87.77;;;28.33;;
22131;SDS011;11232;51.748;19.390;2024-01-11T07:12:11;90.23;;;27.63;;
22131;SDS011;11232;51.748;19.390;2024-01-11T07:14:37;85.63;;;27.53;;
22131;SDS011;11232;51.748;19.390;2024-01-11T07:17:03;81.13;;;25.17;;
22131;SDS011;11232;51.748;19.390;2024-01-11T07:19:29;84.37;;;27.17;;
22131;SDS011;11232;51.748;19.390;2024-01-11T07:21:55;77.57;;;28.23;;
22131;SDS011;11232;51.748;19.390;2024-01-11T07:24:21;90.37;;;28.83;;
22131;SDS011;11232;51.748;19.390;2024-01-11T07:26:47;81.97;;;26.77;;
22131;SDS011;11232;51.748;19.390;2024-01-11T07:29:13;68.87;;;25.53;;
22131;SDS011;11232;51.748;19.390;2024-01-11T07:31:39;79.37;;;25.77;;
22131;SDS011;11232;51.748;19.390;2024-01-11T07:34:05;77.50;;;26.37;;
22131;SDS011;11232;51.748;19.390;2024-01-11T07:36:31;77.93;;;25.20;;
22131;SDS011;11232;51.748;19.390;2024-01-11T07:38:57;69.00;;;24.53;;
22131;SDS011;11232;51.748;19.390;2024-01-11T07:41:23;74.60;;;26.30;;
22131;SDS011;11232;51.748;19.390;2024-01-11T07:43:51;73.87;;;25.70;;
22131;SDS011;11232;51.748;19.390;2024-01-11T07:46:19;87.37;;;27.23;;
22131;SDS011;11232;51.748;19.390;2024-01-11T07:48:45;76.93;;;26.87;;
22131;SDS011;11232;51.748;19.390;2024-01-11T07:51:11;92.80;;;25.50;;
22131;SDS011;11232;51.748;19.390;2024-01-11T07:53:37;81.97;;;27.30;;
22131;SDS011;11232;51.748;19.390;2024-01-11T07:56:05;84.73;;;26.73;;
22131;SDS011;11232;51.748;19.390;2024-01-11T07:58:32;79.13;;;23.83;;
22131;SDS011;11232;51.748;19.390;2024-01-11T08:00:58;83.83;;;25.67;;
22131;SDS011;11232;51.748;19.390;2024-01-11T08:03:24;70.87;;;24.20;;
22131;SDS011;11232;51.748;19.390;2024-01-11T08:05:50;75.37;;;25.00;;
22131;SDS011;11232;51.748;19.390;2024-01-11T08:08:16;68.70;;;23.27;;
22131;SDS011;11232;51.748;19.390;2024-01-11T08:10:42;64.17;;;24.67;;
22131;SDS011;11232;51.748;19.390;2024-01-11T08:13:08;72.17;;;24.60;;
22131;SDS011;11232;51.748;19.390;2024-01-11T08:15:34;69.00;;;23.67;;
22131;SDS011;11232;51.748;19.390;2024-01-11T08:18:02;74.23;;;24.93;;
22131;SDS011;11232;51.748;19.390;2024-01-11T08:20:29;71.60;;;23.13;;
22131;SDS011;11232;51.748;19.390;2024-01-11T08:22:55;68.87;;;24.73;;
22131;SDS011;11232;51.748;19.390;2024-01-11T08:25:21;88.27;;;26.43;;
22131;SDS011;11232;51.748;19.390;2024-01-11T08:27:48;73.63;;;25.67;;
22131;SDS011;11232;51.748;19.390;2024-01-11T08:30:14;73.73;;;23.23;;
22131;SDS011;11232;51.748;19.390;2024-01-11T08:32:40;74.53;;;23.73;;
22131;SDS011;11232;51.748;19.390;2024-01-11T08:35:10;72.07;;;23.77;;
22131;SDS011;11232;51.748;19.390;2024-01-11T08:37:37;67.30;;;24.33;;
22131;SDS011;11232;51.748;19.390;2024-01-11T08:40:04;72.23;;;24.33;;
22131;SDS011;11232;51.748;19.390;2024-01-11T08:42:31;80.37;;;23.90;;
22131;SDS011;11232;51.748;19.390;2024-01-11T08:44:57;70.90;;;25.70;;
22131;SDS011;11232;51.748;19.390;2024-01-11T08:47:23;72.50;;;23.23;;
22131;SDS011;11232;51.748;19.390;2024-01-11T08:49:49;70.90;;;22.93;;
22131;SDS011;11232;51.748;19.390;2024-01-11T08:52:15;79.13;;;24.67;;
22131;SDS011;11232;51.748;19.390;2024-01-11T08:54:41;64.17;;;22.83;;
22131;SDS011;11232;51.748;19.390;2024-01-11T08:57:06;71.80;;;23.40;;
22131;SDS011;11232;51.748;19.390;2024-01-11T08:59:32;75.40;;;25.43;;
22131;SDS011;11232;51.748;19.390;2024-01-11T09:01:58;74.60;;;24.87;;
22131;SDS011;11232;51.748;19.390;2024-01-11T09:04:24;71.53;;;22.70;;
22131;SDS011;11232;51.748;19.390;2024-01-11T09:06:53;74.03;;;23.07;;
22131;SDS011;11232;51.748;19.390;2024-01-11T09:09:21;62.93;;;20.37;;
22131;SDS011;11232;51.748;19.390;2024-01-11T09:11:47;63.07;;;22.07;;
22131;SDS011;11232;51.748;19.390;2024-01-11T09:14:14;67.00;;;23.23;;
22131;SDS011;11232;51.748;19.390;2024-01-11T09:16:40;67.87;;;23.50;;
22131;SDS011;11232;51.748;19.390;2024-01-11T09:19:06;61.57;;;22.10;;
22131;SDS011;11232;51.748;19.390;2024-01-11T09:21:32;57.80;;;20.13;;
22131;SDS011;11232;51.748;19.390;2024-01-11T09:23:58;62.97;;;21.93;;
22131;SDS011;11232;51.748;19.390;2024-01-11T09:26:24;59.33;;;20.73;;
22131;SDS011;11232;51.748;19.390;2024-01-11T09:28:50;64.43;;;22.43;;
22131;SDS011;11232;51.748;19.390;2024-01-11T09:31:16;63.77;;;21.13;;
22131;SDS011;11232;51.748;19.390;2024-01-11T09:33:42;66.00;;;21.37;;
22131;SDS011;11232;51.748;19.390;2024-01-11T09:36:10;63.20;;;21.70;;
22131;SDS011;11232;51.748;19.390;2024-01-11T09:38:36;57.37;;;20.17;;
22131;SDS011;11232;51.748;19.390;2024-01-11T09:41:06;65.20;;;19.93;;
22131;SDS011;11232;51.748;19.390;2024-01-11T09:43:33;62.90;;;19.30;;
22131;SDS011;11232;51.748;19.390;2024-01-11T09:46:00;59.77;;;19.60;;
22131;SDS011;11232;51.748;19.390;2024-01-11T09:48:28;51.73;;;19.40;;
22131;SDS011;11232;51.748;19.390;2024-01-11T09:50:55;57.27;;;18.80;;
22131;SDS011;11232;51.748;19.390;2024-01-11T09:53:23;61.00;;;18.90;;
22131;SDS011;11232;51.748;19.390;2024-01-11T09:55:51;55.37;;;18.87;;
22131;SDS011;11232;51.748;19.390;2024-01-11T09:58:18;54.87;;;18.43;;
22131;SDS011;11232;51.748;19.390;2024-01-11T10:00:44;64.27;;;21.07;;
22131;SDS011;11232;51.748;19.390;2024-01-11T10:03:12;62.20;;;20.10;;
22131;SDS011;11232;51.748;19.390;2024-01-11T10:05:38;65.33;;;21.20;;
22131;SDS011;11232;51.748;19.390;2024-01-11T10:08:05;51.87;;;19.23;;
22131;SDS011;11232;51.748;19.390;2024-01-11T10:10:32;65.50;;;19.30;;
22131;SDS011;11232;51.748;19.390;2024-01-11T10:12:58;59.83;;;19.43;;
22131;SDS011;11232;51.748;19.390;2024-01-11T10:15:24;55.57;;;18.37;;
22131;SDS011;11232;51.748;19.390;2024-01-11T10:17:50;56.70;;;18.20;;
22131;SDS011;11232;51.748;19.390;2024-01-11T10:20:16;58.27;;;19.13;;
22131;SDS011;11232;51.748;19.390;2024-01-11T10:22:48;50.50;;;16.80;;
22131;SDS011;11232;51.748;19.390;2024-01-11T10:25:16;65.00;;;20.93;;
22131;SDS011;11232;51.748;19.390;2024-01-11T10:27:43;50.17;;;17.20;;
22131;SDS011;11232;51.748;19.390;2024-01-11T10:30:10;60.40;;;19.73;;
22131;SDS011;11232;51.748;19.390;2024-01-11T10:32:44;55.43;;;17.63;;
22131;SDS011;11232;51.748;19.390;2024-01-11T10:35:10;59.17;;;18.20;;
22131;SDS011;11232;51.748;19.390;2024-01-11T10:37:36;57.47;;;17.37;;
22131;SDS011;11232;51.748;19.390;2024-01-11T10:40:04;48.33;;;16.97;;
22131;SDS011;11232;51.748;19.390;2024-01-11T10:42:44;48.87;;;17.17;;
22131;SDS011;11232;51.748;19.390;2024-01-11T10:45:13;56.90;;;16.90;;
22131;SDS011;11232;51.748;19.390;2024-01-11T10:47:41;56.20;;;17.90;;
22131;SDS011;11232;51.748;19.390;2024-01-11T10:50:08;48.63;;;16.47;;
22131;SDS011;11232;51.748;19.390;2024-01-11T10:52:36;49.53;;;14.63;;
22131;SDS011;11232;51.748;19.390;2024-01-11T10:55:02;57.47;;;16.50;;
22131;SDS011;11232;51.748;19.390;2024-01-11T10:57:29;49.03;;;15.80;;
22131;SDS011;11232;51.748;19.390;2024-01-11T10:59:55;47.77;;;16.07;;
22131;SDS011;11232;51.748;19.390;2024-01-11T11:02:22;50.70;;;16.17;;
22131;SDS011;11232;51.748;19.390;2024-01-11T11:04:48;40.87;;;14.13;;
22131;SDS011;11232;51.748;19.390;2024-01-11T11:07:17;45.23;;;14.43;;
22131;SDS011;11232;51.748;19.390;2024-01-11T11:09:44;49.33;;;14.53;;
22131;SDS011;11232;51.748;19.390;2024-01-11T11:12:10;50.50;;;16.13;;
22131;SDS011;11232;51.748;19.390;2024-01-11T11:14:36;45.90;;;14.67;;
22131;SDS011;11232;51.748;19.390;2024-01-11T11:17:04;52.27;;;16.97;;
22131;SDS011;11232;51.748;19.390;2024-01-11T11:19:31;47.57;;;16.53;;
22131;SDS011;11232;51.748;19.390;2024-01-11T11:21:57;56.97;;;17.17;;
22131;SDS011;11232;51.748;19.390;2024-01-11T11:24:23;52.87;;;17.70;;
22131;SDS011;11232;51.748;19.390;2024-01-11T11:26:49;46.40;;;15.83;;
22131;SDS011;11232;51.748;19.390;2024-01-11T11:29:15;57.73;;;17.30;;
22131;SDS011;11232;51.748;19.390;2024-01-11T11:31:42;60.47;;;18.83;;
22131;SDS011;11232;51.748;19.390;2024-01-11T11:34:11;57.13;;;18.13;;
22131;SDS011;11232;51.748;19.390;2024-01-11T11:36:39;56.40;;;17.47;;
22131;SDS011;11232;51.748;19.390;2024-01-11T11:39:05;59.57;;;17.10;;
22131;SDS011;11232;51.748;19.390;2024-01-11T11:41:32;52.33;;;18.33;;
22131;SDS011;11232;51.748;19.390;2024-01-11T11:44:02;56.93;;;17.47;;
22131;SDS011;11232;51.748;19.390;2024-01-11T11:46:28;53.77;;;18.23;;
22131;SDS011;11232;51.748;19.390;2024-01-11T11:48:54;67.40;;;21.27;;
22131;SDS011;11232;51.748;19.390;2024-01-11T11:51:22;61.43;;;20.03;;
22131;SDS011;11232;51.748;19.390;2024-01-11T11:53:48;56.53;;;19.07;;
22131;SDS011;11232;51.748;19.390;2024-01-11T11:56:16;74.17;;;20.17;;
22131;SDS011;11232;51.748;19.390;2024-01-11T11:58:43;69.80;;;21.70;;
22131;SDS011;11232;51.748;19.390;2024-01-11T12:01:09;75.10;;;20.43;;
22131;SDS011;11232;51.748;19.390;2024-01-11T12:03:36;77.53;;;21.90;;
22131;SDS011;11232;51.748;19.390;2024-01-11T12:06:03;69.97;;;19.70;;
22131;SDS011;11232;51.748;19.390;2024-01-11T12:08:29;65.90;;;19.73;;
22131;SDS011;11232;51.748;19.390;2024-01-11T12:10:55;66.87;;;18.70;;
22131;SDS011;11232;51.748;19.390;2024-01-11T12:13:21;62.73;;;19.47;;
22131;SDS011;11232;51.748;19.390;2024-01-11T12:15:47;69.43;;;19.37;;
22131;SDS011;11232;51.748;19.390;2024-01-11T12:18:13;62.00;;;20.30;;
22131;SDS011;11232;51.748;19.390;2024-01-11T12:20:39;67.73;;;19.60;;
22131;SDS011;11232;51.748;19.390;2024-01-11T12:23:05;65.60;;;18.80;;
22131;SDS011;11232;51.748;19.390;2024-01-11T12:25:31;72.67;;;22.10;;
22131;SDS011;11232;51.748;19.390;2024-01-11T12:27:57;69.83;;;18.20;;
22131;SDS011;11232;51.748;19.390;2024-01-11T12:30:24;53.43;;;16.67;;
22131;SDS011;11232;51.748;19.390;2024-01-11T12:32:50;56.50;;;15.90;;
22131;SDS011;11232;51.748;19.390;2024-01-11T12:35:17;53.33;;;17.27;;
22131;SDS011;11232;51.748;19.390;2024-01-11T12:37:52;57.63;;;17.03;;
22131;SDS011;11232;51.748;19.390;2024-01-11T12:40:19;51.73;;;17.80;;
22131;SDS011;11232;51.748;19.390;2024-01-11T12:42:45;53.93;;;17.73;;
22131;SDS011;11232;51.748;19.390;2024-01-11T12:45:11;59.50;;;17.70;;
22131;SDS011;11232;51.748;19.390;2024-01-11T12:47:38;55.43;;;18.10;;
22131;SDS011;11232;51.748;19.390;2024-01-11T12:50:04;58.47;;;18.10;;
22131;SDS011;11232;51.748;19.390;2024-01-11T12:52:32;60.27;;;18.27;;
22131;SDS011;11232;51.748;19.390;2024-01-11T12:54:58;56.40;;;17.83;;
22131;SDS011;11232;51.748;19.390;2024-01-11T12:57:25;71.90;;;19.23;;
22131;SDS011;11232;51.748;19.390;2024-01-11T12:59:51;64.30;;;19.60;;
22131;SDS011;11232;51.748;19.390;2024-01-11T13:02:18;69.70;;;20.30;;
22131;SDS011;11232;51.748;19.390;2024-01-11T13:04:45;58.03;;;19.47;;
22131;SDS011;11232;51.748;19.390;2024-01-11T13:07:14;60.73;;;20.30;;
22131;SDS011;11232;51.748;19.390;2024-01-11T13:09:40;57.43;;;18.13;;
22131;SDS011;11232;51.748;19.390;2024-01-11T13:12:06;57.47;;;19.20;;
22131;SDS011;11232;51.748;19.390;2024-01-11T13:14:33;57.47;;;18.37;;
22131;SDS011;11232;51.748;19.390;2024-01-11T13:17:00;65.30;;;19.43;;
22131;SDS011;11232;51.748;19.390;2024-01-11T13:19:26;57.53;;;18.53;;
22131;SDS011;11232;51.748;19.390;2024-01-11T13:21:52;56.07;;;18.93;;
22131;SDS011;11232;51.748;19.390;2024-01-11T13:24:18;66.97;;;20.90;;
22131;SDS011;11232;51.748;19.390;2024-01-11T13:26:44;67.57;;;20.13;;
22131;SDS011;11232;51.748;19.390;2024-01-11T13:29:10;75.30;;;22.47;;
22131;SDS011;11232;51.748;19.390;2024-01-11T13:31:36;59.20;;;20.20;;
22131;SDS011;11232;51.748;19.390;2024-01-11T13:34:03;63.73;;;20.57;;
22131;SDS011;11232;51.748;19.390;2024-01-11T13:36:29;70.10;;;19.83;;
22131;SDS011;11232;51.748;19.390;2024-01-11T13:38:54;63.27;;;20.07;;
22131;SDS011;11232;51.748;19.390;2024-01-11T13:41:21;64.63;;;20.00;;
22131;SDS011;11232;51.748;19.390;2024-01-11T13:43:47;63.53;;;20.67;;
22131;SDS011;11232;51.748;19.390;2024-01-11T13:46:13;64.30;;;20.33;;
22131;SDS011;11232;51.748;19.390;2024-01-11T13:48:44;58.13;;;20.00;;
22131;SDS011;11232;51.748;19.390;2024-01-11T13:51:11;70.47;;;20.57;;
22131;SDS011;11232;51.748;19.390;2024-01-11T13:53:39;69.00;;;20.93;;
22131;SDS011;11232;51.748;19.390;2024-01-11T13:56:05;66.07;;;20.70;;
22131;SDS011;11232;51.748;19.390;2024-01-11T13:58:31;60.43;;;20.23;;